createdAt,value
2018-08-06T00:01:24.193Z,3.33
2018-08-06T00:03:51.815Z,3.10
2018-08-06T00:06:20.570Z,3.00
2018-08-06T00:08:48.514Z,3.33
2018-08-06T00:11:32.961Z,2.90
2018-08-06T00:13:59.926Z,3.23
2018-08-06T00:16:26.871Z,3.40
2018-08-06T00:18:53.872Z,3.30
2018-08-06T00:21:20.796Z,3.43
2018-08-06T00:23:47.747Z,3.50
2018-08-06T00:26:15.739Z,3.77
2018-08-06T00:28:42.703Z,3.30
2018-08-06T00:31:10.689Z,3.53
2018-08-06T00:33:37.643Z,2.90
2018-08-06T00:36:04.847Z,2.97
2018-08-06T00:38:31.831Z,2.67
2018-08-06T00:40:59.839Z,2.80
2018-08-06T00:43:26.831Z,3.20
2018-08-06T00:45:53.788Z,2.80
2018-08-06T00:48:23.419Z,3.10
2018-08-06T00:50:50.876Z,2.83
2018-08-06T00:53:18.816Z,3.00
2018-08-06T00:55:45.766Z,3.27
2018-08-06T00:58:12.816Z,3.40
2018-08-06T01:00:51.164Z,3.70
2018-08-06T01:03:18.111Z,3.27
2018-08-06T01:05:45.064Z,3.97
2018-08-06T01:08:15.804Z,2.90
2018-08-06T01:10:44.456Z,3.27
2018-08-06T01:13:11.343Z,3.33
2018-08-06T01:15:39.347Z,3.00
2018-08-06T01:18:11.223Z,3.40
2018-08-06T01:20:39.083Z,3.20
2018-08-06T01:23:11.822Z,3.50
2018-08-06T01:25:48.199Z,3.47
2018-08-06T01:28:15.134Z,3.17
2018-08-06T01:30:43.123Z,3.30
2018-08-06T01:33:10.044Z,3.30
2018-08-06T01:35:37.878Z,3.90
2018-08-06T01:38:05.707Z,3.43
2018-08-06T01:40:33.099Z,3.20
2018-08-06T01:43:00.068Z,3.60
2018-08-06T01:45:27.006Z,3.27
2018-08-06T01:47:53.998Z,3.90
2018-08-06T01:50:20.927Z,3.57
2018-08-06T01:52:47.892Z,3.60
2018-08-06T01:55:18.187Z,3.03
2018-08-06T01:57:48.627Z,3.30
2018-08-06T02:00:16.325Z,3.40
2018-08-06T02:02:44.365Z,3.50
2018-08-06T02:05:11.602Z,3.80
2018-08-06T02:07:39.338Z,3.40
2018-08-06T02:10:08.151Z,3.27
2018-08-06T02:12:35.124Z,3.37
2018-08-06T02:15:02.081Z,2.97
2018-08-06T02:17:29.061Z,3.50
2018-08-06T02:19:57.066Z,2.77
2018-08-06T02:22:24.832Z,2.60
2018-08-06T02:24:51.821Z,2.83
2018-08-06T02:27:18.666Z,3.50
2018-08-06T02:29:45.689Z,3.20
2018-08-06T02:32:21.947Z,3.30
2018-08-06T02:34:49.544Z,2.80
2018-08-06T02:37:17.767Z,2.67
2018-08-06T02:39:50.191Z,2.93
2018-08-06T02:42:23.657Z,3.10
2018-08-06T02:44:55.086Z,2.43
2018-08-06T02:47:22.873Z,2.97
2018-08-06T02:49:49.791Z,2.60
2018-08-06T02:52:16.777Z,2.87
2018-08-06T02:54:43.763Z,2.70
2018-08-06T02:57:10.679Z,2.43
2018-08-06T02:59:37.639Z,2.20
2018-08-06T03:02:04.715Z,2.53
2018-08-06T03:04:31.675Z,2.17
2018-08-06T03:06:58.607Z,2.43
2018-08-06T03:09:25.586Z,2.27
2018-08-06T03:11:52.558Z,2.50
2018-08-06T03:14:19.495Z,2.57
2018-08-06T03:16:46.456Z,2.63
2018-08-06T03:19:28.530Z,2.93
2018-08-06T03:21:58.971Z,2.60
2018-08-06T03:24:26.801Z,2.60
2018-08-06T03:26:54.052Z,3.20
2018-08-06T03:29:22.200Z,2.30
2018-08-06T03:31:56.444Z,2.50
2018-08-06T03:34:42.208Z,2.50
2018-08-06T03:37:09.206Z,2.93
2018-08-06T03:39:36.171Z,2.63
2018-08-06T03:42:04.156Z,2.70
2018-08-06T03:44:32.984Z,2.53
2018-08-06T03:46:59.907Z,2.73
2018-08-06T03:49:26.893Z,3.00
2018-08-06T03:51:53.825Z,3.53
2018-08-06T03:54:20.803Z,2.33
2018-08-06T03:56:47.724Z,2.40
2018-08-06T03:59:14.708Z,2.33
2018-08-06T04:01:41.655Z,3.20
2018-08-06T04:04:08.696Z,2.90
2018-08-06T04:06:35.663Z,2.53
2018-08-06T04:09:13.601Z,2.35
2018-08-06T04:11:40.987Z,2.70
2018-08-06T04:14:13.172Z,1.87
2018-08-06T04:16:43.903Z,2.30
2018-08-06T04:19:13.979Z,2.63
2018-08-06T04:21:50.548Z,2.33
2018-08-06T04:24:28.066Z,2.63
2018-08-06T04:27:22.555Z,2.00
2018-08-06T04:30:08.195Z,2.67
2018-08-06T04:32:40.667Z,2.17
2018-08-06T04:35:15.175Z,2.37
2018-08-06T04:37:50.406Z,2.30
2018-08-06T04:40:19.783Z,2.43
2018-08-06T04:42:47.770Z,2.20
2018-08-06T04:45:14.797Z,2.30
2018-08-06T04:47:47.564Z,2.30
2018-08-06T04:50:14.868Z,2.13
2018-08-06T04:52:41.960Z,2.10
2018-08-06T04:55:10.727Z,1.90
2018-08-06T04:57:38.591Z,2.30
2018-08-06T05:00:15.522Z,2.03
2018-08-06T05:02:45.061Z,2.30
2018-08-06T05:07:50.122Z,2.60
2018-08-06T05:10:22.490Z,2.33
2018-08-06T05:12:49.963Z,2.13
2018-08-06T05:15:16.931Z,2.20
2018-08-06T05:17:43.915Z,2.40
2018-08-06T05:20:10.868Z,2.47
2018-08-06T05:22:43.640Z,2.40
2018-08-06T05:25:19.696Z,2.87
2018-08-06T05:27:50.075Z,2.50
2018-08-06T05:30:17.067Z,1.90
2018-08-06T05:32:44.087Z,2.30
2018-08-06T05:35:16.403Z,2.90
2018-08-06T05:38:02.868Z,2.20
2018-08-06T05:40:37.752Z,2.83
2018-08-06T05:43:11.992Z,2.27
2018-08-06T05:45:39.580Z,2.20
2018-08-06T05:48:18.938Z,2.67
2018-08-06T05:50:46.731Z,2.53
2018-08-06T05:53:15.616Z,2.60
2018-08-06T05:55:42.808Z,2.90
2018-08-06T05:58:15.644Z,2.20
2018-08-06T06:00:45.068Z,2.07
2018-08-06T06:03:13.096Z,2.60
2018-08-06T06:05:43.149Z,2.30
2018-08-06T06:08:11.131Z,2.30
2018-08-06T06:10:38.071Z,2.77
2018-08-06T06:13:05.059Z,2.47
2018-08-06T06:15:31.976Z,2.60
2018-08-06T06:17:58.957Z,2.10
2018-08-06T06:20:28.599Z,2.40
2018-08-06T06:22:55.557Z,2.40
2018-08-06T06:25:22.472Z,2.87
2018-08-06T06:27:50.455Z,2.60
2018-08-06T06:30:25.231Z,2.70
2018-08-06T06:33:02.332Z,2.50
2018-08-06T06:35:39.971Z,2.60
2018-08-06T06:38:23.567Z,2.87
2018-08-06T06:40:53.003Z,2.97
2018-08-06T06:43:19.919Z,2.90
2018-08-06T06:45:46.888Z,3.00
2018-08-06T06:48:13.858Z,2.70
2018-08-06T06:50:41.539Z,2.50
2018-08-06T06:53:08.506Z,2.30
2018-08-06T06:55:35.450Z,2.53
2018-08-06T06:58:02.408Z,2.80
2018-08-06T07:00:29.379Z,2.70
2018-08-06T07:02:56.306Z,2.73
2018-08-06T07:05:23.254Z,2.87
2018-08-06T07:07:50.268Z,2.80
2018-08-06T07:10:17.166Z,2.43
2018-08-06T07:12:44.178Z,2.87
2018-08-06T07:15:13.631Z,3.40
2018-08-06T07:17:42.019Z,3.13
2018-08-06T07:20:13.462Z,2.80
2018-08-06T07:22:46.906Z,2.70
2018-08-06T07:25:14.899Z,2.90
2018-08-06T07:27:42.556Z,3.13
2018-08-06T07:30:13.191Z,2.77
2018-08-06T07:32:41.071Z,2.83
2018-08-06T07:35:08.772Z,2.97
2018-08-06T07:37:37.055Z,3.00
2018-08-06T07:40:20.013Z,3.40
2018-08-06T07:43:05.551Z,3.77
2018-08-06T07:45:39.990Z,3.30
2018-08-06T07:48:19.474Z,3.20
2018-08-06T07:50:47.483Z,3.20
2018-08-06T07:53:14.419Z,3.70
2018-08-06T07:55:41.392Z,2.97
2018-08-06T07:58:08.327Z,3.67
2018-08-06T08:00:35.321Z,3.40
2018-08-06T08:03:05.015Z,3.47
2018-08-06T08:05:40.423Z,3.23
2018-08-06T08:08:07.454Z,3.20
2018-08-06T08:10:34.411Z,3.50
2018-08-06T08:13:02.493Z,3.60
2018-08-06T08:15:38.003Z,3.23
2018-08-06T08:18:05.048Z,3.23
2018-08-06T08:20:32.018Z,2.90
2018-08-06T08:22:59.002Z,3.37
2018-08-06T08:25:25.934Z,3.30
2018-08-06T08:27:52.903Z,3.37
2018-08-06T08:30:20.067Z,3.50
2018-08-06T08:32:47.023Z,3.47
2018-08-06T08:35:14.637Z,4.00
2018-08-06T08:37:42.770Z,3.27
2018-08-06T08:40:13.739Z,3.53
2018-08-06T08:42:40.743Z,3.50
2018-08-06T08:45:10.632Z,3.00
2018-08-06T08:47:37.891Z,3.60
2018-08-06T08:50:06.179Z,3.23
2018-08-06T08:52:33.215Z,3.33
2018-08-06T08:55:04.081Z,3.10
2018-08-06T08:57:31.047Z,3.10
2018-08-06T09:00:13.262Z,3.60
2018-08-06T09:02:48.803Z,3.53
2018-08-06T09:05:16.283Z,3.53
2018-08-06T09:07:43.359Z,3.17
2018-08-06T09:10:11.651Z,3.37
2018-08-06T09:12:39.026Z,3.40
2018-08-06T09:15:12.467Z,2.77
2018-08-06T09:17:40.603Z,2.93
2018-08-06T09:20:07.620Z,3.13
2018-08-06T09:22:34.656Z,3.00
2018-08-06T09:25:01.580Z,3.20
2018-08-06T09:27:28.679Z,3.47
2018-08-06T09:29:55.587Z,3.33
2018-08-06T09:32:22.949Z,3.80
2018-08-06T09:34:59.052Z,3.20
2018-08-06T09:37:30.369Z,2.97
2018-08-06T09:40:07.967Z,3.60
2018-08-06T09:42:45.578Z,2.83
2018-08-06T09:45:22.688Z,3.10
2018-08-06T09:47:50.771Z,2.60
2018-08-06T09:50:30.980Z,2.87
2018-08-06T09:53:03.847Z,3.20
2018-08-06T09:55:32.191Z,3.30
2018-08-06T09:58:00.104Z,3.30
2018-08-06T10:00:35.203Z,2.90
2018-08-06T10:03:17.523Z,3.23
2018-08-06T10:05:52.216Z,2.83
2018-08-06T10:08:19.173Z,2.83
2018-08-06T10:10:46.195Z,3.23
2018-08-06T10:13:13.329Z,2.80
2018-08-06T10:15:40.276Z,3.07
2018-08-06T10:18:37.487Z,2.93
2018-08-06T10:21:04.739Z,2.90
2018-08-06T10:23:31.663Z,3.30
2018-08-06T10:25:58.631Z,3.10
2018-08-06T10:28:25.587Z,3.00
2018-08-06T10:30:52.575Z,3.17
2018-08-06T10:33:19.542Z,3.63
2018-08-06T10:35:46.448Z,3.70
2018-08-06T10:38:13.424Z,3.80
2018-08-06T10:40:40.340Z,3.37
2018-08-06T10:43:16.259Z,2.97
2018-08-06T10:45:56.654Z,3.53
2018-08-06T10:48:35.596Z,3.17
2018-08-06T10:51:04.020Z,3.23
2018-08-06T10:53:50.180Z,2.93
2018-08-06T10:56:24.588Z,3.83
2018-08-06T10:58:53.992Z,3.50
2018-08-06T11:01:36.629Z,3.10
2018-08-06T11:04:06.146Z,3.20
2018-08-06T11:06:35.600Z,3.47
2018-08-06T11:09:02.541Z,3.00
2018-08-06T11:11:29.488Z,3.20
2018-08-06T11:13:56.492Z,3.33
2018-08-06T11:16:23.480Z,3.33
2018-08-06T11:18:50.392Z,3.50
2018-08-06T11:21:17.343Z,2.70
2018-08-06T11:23:46.179Z,3.20
2018-08-06T11:26:13.404Z,3.33
2018-08-06T11:28:40.328Z,3.30
2018-08-06T11:31:07.594Z,3.27
2018-08-06T11:33:45.171Z,3.10
2018-08-06T11:36:12.170Z,3.17
2018-08-06T11:38:39.131Z,3.60
2018-08-06T11:41:06.275Z,2.73
2018-08-06T11:43:33.246Z,3.70
2018-08-06T11:46:09.031Z,2.97
2018-08-06T11:48:47.545Z,3.00
2018-08-06T11:51:22.456Z,3.20
2018-08-06T11:53:52.433Z,3.20
2018-08-06T11:56:24.039Z,3.70
2018-08-06T11:59:03.368Z,3.57
2018-08-06T12:01:46.227Z,3.10
2018-08-06T12:04:13.221Z,3.47
2018-08-06T12:09:22.565Z,3.03
2018-08-06T12:11:49.531Z,3.20
2018-08-06T12:14:18.751Z,3.40
2018-08-06T12:16:48.125Z,3.30
2018-08-06T12:19:15.140Z,3.37
2018-08-06T12:21:42.114Z,3.30
2018-08-06T12:24:09.079Z,3.67
2018-08-06T12:26:36.017Z,3.60
2018-08-06T12:29:02.982Z,3.83
2018-08-06T12:31:30.032Z,3.63
2018-08-06T12:33:57.067Z,3.87
2018-08-06T12:36:24.159Z,3.67
2018-08-06T12:39:02.252Z,3.40
2018-08-06T12:41:29.245Z,3.53
2018-08-06T12:43:56.174Z,3.60
2018-08-06T12:46:32.969Z,3.70
2018-08-06T12:48:59.939Z,4.27
2018-08-06T12:51:26.864Z,4.10
2018-08-06T12:53:54.319Z,3.40
2018-08-06T12:56:21.307Z,2.90
2018-08-06T12:58:48.353Z,3.07
2018-08-06T13:01:15.652Z,3.70
2018-08-06T13:03:42.668Z,3.70
2018-08-06T13:06:09.773Z,3.67
2018-08-06T13:08:36.720Z,3.50
2018-08-06T13:11:03.664Z,2.90
2018-08-06T13:13:30.675Z,3.50
2018-08-06T13:15:57.763Z,3.60
2018-08-06T13:18:25.134Z,3.50
2018-08-06T13:20:53.227Z,3.80
2018-08-06T13:23:29.388Z,3.70
2018-08-06T13:26:01.908Z,3.80
2018-08-06T13:28:32.791Z,3.85
2018-08-06T13:30:59.831Z,3.70
2018-08-06T13:33:26.868Z,4.20
2018-08-06T13:35:53.803Z,3.87
2018-08-06T13:38:20.840Z,3.40
2018-08-06T13:40:48.882Z,4.30
2018-08-06T13:43:15.983Z,3.50
2018-08-06T13:45:43.094Z,3.83
2018-08-06T13:48:10.455Z,3.80
2018-08-06T13:50:37.414Z,3.40
2018-08-06T13:53:04.623Z,3.80
2018-08-06T13:55:31.649Z,3.63
2018-08-06T13:57:58.574Z,3.80
2018-08-06T14:00:25.635Z,3.70
2018-08-06T14:02:52.753Z,4.00
2018-08-06T14:05:19.757Z,3.80
2018-08-06T14:07:47.847Z,3.87
2018-08-06T14:10:15.219Z,4.10
2018-08-06T14:12:42.339Z,4.00
2018-08-06T14:15:16.759Z,3.90
2018-08-06T14:17:51.892Z,3.40
2018-08-06T14:20:21.455Z,4.27
2018-08-06T14:22:57.052Z,3.90
2018-08-06T14:25:26.596Z,4.80
2018-08-06T14:28:17.305Z,4.00
2018-08-06T14:30:59.324Z,4.20
2018-08-06T14:33:29.889Z,4.30
2018-08-06T14:35:59.595Z,3.63
2018-08-06T14:38:38.839Z,4.37
2018-08-06T14:41:05.849Z,3.87
2018-08-06T14:43:32.897Z,4.17
2018-08-06T14:45:59.896Z,4.10
2018-08-06T14:48:26.846Z,4.30
2018-08-06T14:50:53.798Z,4.40
2018-08-06T14:53:20.784Z,3.83
2018-08-06T14:55:47.756Z,3.83
2018-08-06T14:58:14.695Z,4.43
2018-08-06T15:00:41.637Z,4.10
2018-08-06T15:03:08.677Z,4.20
2018-08-06T15:05:35.712Z,4.40
2018-08-06T15:08:06.947Z,4.37
2018-08-06T15:10:39.407Z,4.20
2018-08-06T15:13:09.521Z,4.10
2018-08-06T15:15:47.958Z,3.83
2018-08-06T15:18:29.699Z,3.90
2018-08-06T15:21:12.351Z,4.00
2018-08-06T15:23:42.855Z,3.70
2018-08-06T15:26:11.234Z,4.43
2018-08-06T15:28:39.803Z,4.23
2018-08-06T15:31:07.504Z,4.47
2018-08-06T15:33:34.447Z,4.90
2018-08-06T15:36:01.421Z,4.40
2018-08-06T15:38:28.391Z,4.53
2018-08-06T15:40:55.326Z,4.33
2018-08-06T15:43:22.292Z,4.10
2018-08-06T15:45:49.247Z,4.23
2018-08-06T15:48:16.280Z,4.03
2018-08-06T15:50:43.460Z,4.17
2018-08-06T15:53:10.679Z,4.10
2018-08-06T15:55:37.635Z,4.27
2018-08-06T15:58:04.862Z,4.90
2018-08-06T16:00:32.229Z,4.47
2018-08-06T16:02:59.513Z,3.87
2018-08-06T16:05:26.424Z,4.50
2018-08-06T16:07:53.398Z,4.57
2018-08-06T16:10:20.360Z,4.50
2018-08-06T16:12:47.341Z,4.25
2018-08-06T16:15:15.471Z,4.73
2018-08-06T16:17:43.035Z,3.80
2018-08-06T16:20:12.002Z,4.30
2018-08-06T16:22:39.219Z,3.77
2018-08-06T16:25:06.685Z,3.60
2018-08-06T16:27:33.723Z,3.70
2018-08-06T16:30:00.829Z,3.67
2018-08-06T16:32:27.754Z,3.97
2018-08-06T16:34:54.742Z,3.97
2018-08-06T16:37:25.662Z,3.50
2018-08-06T16:40:01.458Z,4.30
2018-08-06T16:42:36.068Z,3.53
2018-08-06T16:45:05.084Z,3.23
2018-08-06T16:47:40.307Z,3.40
2018-08-06T16:50:11.811Z,3.85
2018-08-06T16:52:38.896Z,4.00
2018-08-06T16:55:06.639Z,3.53
2018-08-06T16:57:33.609Z,3.37
2018-08-06T17:00:00.565Z,3.73
2018-08-06T17:02:27.535Z,3.40
2018-08-06T17:04:54.529Z,3.70
2018-08-06T17:07:23.630Z,4.17
2018-08-06T17:09:53.706Z,3.33
2018-08-06T17:12:20.743Z,3.30
2018-08-06T17:14:47.747Z,3.77
2018-08-06T17:17:14.695Z,3.90
2018-08-06T17:19:41.631Z,3.50
2018-08-06T17:22:12.195Z,3.40
2018-08-06T17:24:48.674Z,3.60
2018-08-06T17:27:18.651Z,3.93
2018-08-06T17:29:46.863Z,3.60
2018-08-06T17:32:13.802Z,3.73
2018-08-06T17:34:40.836Z,3.20
2018-08-06T17:37:07.815Z,3.67
2018-08-06T17:39:34.719Z,3.40
2018-08-06T17:42:01.683Z,3.47
2018-08-06T17:44:28.643Z,3.20
2018-08-06T17:46:55.634Z,4.20
2018-08-06T17:49:22.703Z,3.40
2018-08-06T17:51:49.833Z,3.80
2018-08-06T17:54:16.749Z,3.63
2018-08-06T17:56:43.744Z,3.73
2018-08-06T17:59:10.696Z,3.60
2018-08-06T18:01:37.696Z,3.67
2018-08-06T18:04:04.769Z,3.30
2018-08-06T18:06:31.872Z,3.60
2018-08-06T18:08:59.027Z,3.40
2018-08-06T18:11:26.090Z,3.30
2018-08-06T18:13:53.058Z,3.80
2018-08-06T18:16:20.008Z,3.40
2018-08-06T18:18:46.962Z,3.83
2018-08-06T18:21:14.525Z,3.93
2018-08-06T18:23:41.499Z,3.40
2018-08-06T18:26:08.405Z,3.90
2018-08-06T18:28:36.042Z,3.97
2018-08-06T18:31:03.070Z,4.57
2018-08-06T18:33:30.347Z,4.07
2018-08-06T18:35:57.366Z,4.07
2018-08-06T18:38:24.381Z,4.17
2018-08-06T18:40:51.331Z,3.85
2018-08-06T18:43:18.371Z,4.10
2018-08-06T18:45:45.215Z,4.40
2018-08-06T18:48:13.073Z,4.60
2018-08-06T18:50:52.688Z,4.07
2018-08-06T18:53:35.551Z,4.10
2018-08-06T18:56:02.586Z,5.47
2018-08-06T18:58:29.532Z,5.10
2018-08-06T19:00:56.807Z,5.07
2018-08-06T19:03:23.733Z,5.07
2018-08-06T19:05:51.719Z,6.93
2018-08-06T19:08:18.710Z,7.30
2018-08-06T19:10:45.619Z,7.50
2018-08-06T19:13:19.145Z,6.77
2018-08-06T19:15:48.750Z,6.73
2018-08-06T19:18:28.887Z,6.80
2018-08-06T19:20:58.415Z,5.90
2018-08-06T19:23:33.070Z,6.00
2018-08-06T19:26:05.071Z,5.80
2018-08-06T19:28:44.449Z,6.23
2018-08-06T19:31:31.868Z,6.30
2018-08-06T19:34:08.275Z,6.13
2018-08-06T19:36:43.622Z,6.30
2018-08-06T19:39:10.811Z,5.60
2018-08-06T19:41:38.309Z,6.50
2018-08-06T19:44:06.388Z,6.17
2018-08-06T19:46:33.415Z,5.90
2018-08-06T19:49:20.647Z,6.10
2018-08-06T19:51:47.616Z,6.40
2018-08-06T19:54:14.693Z,5.80
2018-08-06T19:56:41.566Z,6.60
2018-08-06T19:59:12.832Z,6.80
2018-08-06T20:01:39.664Z,7.05
2018-08-06T20:04:07.215Z,6.60
2018-08-06T20:06:34.368Z,6.63
2018-08-06T20:09:01.395Z,6.30
2018-08-06T20:11:29.357Z,5.80
2018-08-06T20:13:56.367Z,6.30
2018-08-06T20:16:23.283Z,5.80
2018-08-06T20:18:50.209Z,6.40
2018-08-06T20:21:17.177Z,6.70
2018-08-06T20:23:44.677Z,6.53
2018-08-06T20:26:11.548Z,6.50
2018-08-06T20:28:38.521Z,6.57
2018-08-06T20:31:05.552Z,5.87
2018-08-06T20:33:32.779Z,6.37
2018-08-06T20:35:59.758Z,6.50
2018-08-06T20:38:26.709Z,6.73
2018-08-06T20:40:53.618Z,6.67
2018-08-06T20:43:25.432Z,5.87
2018-08-06T20:46:02.032Z,5.77
2018-08-06T20:48:44.888Z,6.60
2018-08-06T20:51:11.791Z,6.13
2018-08-06T20:53:38.747Z,6.60
2018-08-06T20:56:05.759Z,5.90
2018-08-06T20:58:32.667Z,7.00
2018-08-06T21:00:59.615Z,6.60
2018-08-06T21:03:26.580Z,6.20
2018-08-06T21:05:57.116Z,6.00
2018-08-06T21:08:30.138Z,6.40
2018-08-06T21:10:57.091Z,6.50
2018-08-06T21:13:24.036Z,6.17
2018-08-06T21:15:50.997Z,6.83
2018-08-06T21:18:17.995Z,7.57
2018-08-06T21:20:44.918Z,6.47
2018-08-06T21:23:11.887Z,6.70
2018-08-06T21:25:38.791Z,7.17
2018-08-06T21:28:32.585Z,6.87
2018-08-06T21:30:59.602Z,6.93
2018-08-06T21:33:26.514Z,7.03
2018-08-06T21:35:53.538Z,6.97
2018-08-06T21:38:22.116Z,6.87
2018-08-06T21:40:49.107Z,6.77
2018-08-06T21:43:19.714Z,6.13
2018-08-06T21:45:46.741Z,6.30
2018-08-06T21:48:13.599Z,6.10
2018-08-06T21:50:40.628Z,6.67
2018-08-06T21:53:13.172Z,6.67
2018-08-06T21:55:42.634Z,6.43
2018-08-06T21:58:26.179Z,6.13
2018-08-06T22:01:02.673Z,6.00
2018-08-06T22:03:43.096Z,5.87
2018-08-06T22:06:10.183Z,5.80
2018-08-06T22:08:37.180Z,6.03
2018-08-06T22:11:04.143Z,5.97
2018-08-06T22:13:31.119Z,6.43
2018-08-06T22:15:58.087Z,6.83
2018-08-06T22:18:25.041Z,6.57
2018-08-06T22:20:51.980Z,7.20
2018-08-06T22:23:20.719Z,7.63
2018-08-06T22:25:47.932Z,7.90
2018-08-06T22:28:14.899Z,7.57
2018-08-06T22:30:41.871Z,6.73
2018-08-06T22:33:21.225Z,7.27
2018-08-06T22:36:05.329Z,7.90
2018-08-06T22:38:36.137Z,7.37
2018-08-06T22:41:12.245Z,8.30
2018-08-06T22:43:48.049Z,8.20
2018-08-06T22:46:15.023Z,8.23
2018-08-06T22:48:41.991Z,9.10
2018-08-06T22:51:08.946Z,7.60
2018-08-06T22:53:35.891Z,8.53
2018-08-06T22:56:06.514Z,6.40
2018-08-06T22:58:33.508Z,7.23
2018-08-06T23:01:00.443Z,7.57
2018-08-06T23:03:27.387Z,6.73
2018-08-06T23:05:55.220Z,7.10
2018-08-06T23:08:22.295Z,6.60
2018-08-06T23:10:51.187Z,7.53
2018-08-06T23:13:28.160Z,8.50
2018-08-06T23:15:59.655Z,9.33
2018-08-06T23:18:31.097Z,8.60
2018-08-06T23:21:06.503Z,8.77
2018-08-06T23:23:41.039Z,8.50
2018-08-06T23:26:10.602Z,8.87
2018-08-06T23:28:40.895Z,8.60
2018-08-06T23:31:16.797Z,8.87
2018-08-06T23:33:53.323Z,8.37
2018-08-06T23:36:21.983Z,9.93
2018-08-06T23:38:58.254Z,8.17
2018-08-06T23:41:49.123Z,8.60
2018-08-06T23:44:18.744Z,8.60
2018-08-06T23:46:59.179Z,9.30
2018-08-06T23:49:37.564Z,8.40
2018-08-06T23:52:04.575Z,8.40
2018-08-06T23:54:31.520Z,8.57
2018-08-06T23:56:59.151Z,8.60
2018-08-06T23:59:26.120Z,8.73
